KCVO - Corvallis, OR
Updated: Mon, 20-Aug-2018 3:56pm PDT
Haze, Mostly cloudy
Haze, Mostly cloudy
 Wind from varies
Wind: varies 5 mph , 7 km/h
Temperature: 81°F , 27°C
Heat Index: 81°F , 27°C
Dew Point: 57°F , 14°C
Humidity: 45%
Barometer: 29.95 inHg , 1014.2 hPa
Summary: Haze
Clouds: Mostly Cloudy
Visibility: 5 miles , 8 km
Cloud details: Mostly Cloudy 3600 ft
2018/08/20 22:56 KCVO 202256Z AUTO VRB04KT 5SM HZ BKN036 27/14 A2995 RMK AO2 SLP140 T02670144